sensor_id;sensor_type;location;lat;lon;timestamp;P1;durP1;ratioP1;P2;durP2;ratioP2
48627;SDS011;34424;52.234;6.500;2023-04-25T00:00:12;27.15;;;9.50;;
48627;SDS011;34424;52.234;6.500;2023-04-25T00:05:16;24.10;;;9.30;;
48627;SDS011;34424;52.234;6.500;2023-04-25T00:10:19;27.55;;;10.35;;
48627;SDS011;34424;52.234;6.500;2023-04-25T00:15:23;25.63;;;9.23;;
48627;SDS011;34424;52.234;6.500;2023-04-25T00:20:26;26.08;;;9.52;;
48627;SDS011;34424;52.234;6.500;2023-04-25T00:25:29;23.83;;;9.48;;
48627;SDS011;34424;52.234;6.500;2023-04-25T00:30:33;19.73;;;9.27;;
48627;SDS011;34424;52.234;6.500;2023-04-25T00:35:35;29.42;;;11.98;;
48627;SDS011;34424;52.234;6.500;2023-04-25T00:40:38;28.27;;;10.07;;
48627;SDS011;34424;52.234;6.500;2023-04-25T00:45:42;27.20;;;10.52;;
48627;SDS011;34424;52.234;6.500;2023-04-25T00:50:48;28.38;;;11.93;;
48627;SDS011;34424;52.234;6.500;2023-04-25T00:55:54;30.25;;;11.10;;
48627;SDS011;34424;52.234;6.500;2023-04-25T01:00:58;31.48;;;11.88;;
48627;SDS011;34424;52.234;6.500;2023-04-25T01:06:02;29.92;;;11.48;;
48627;SDS011;34424;52.234;6.500;2023-04-25T01:11:05;28.23;;;9.67;;
48627;SDS011;34424;52.234;6.500;2023-04-25T01:16:09;37.25;;;12.50;;
48627;SDS011;34424;52.234;6.500;2023-04-25T01:21:13;30.45;;;12.45;;
48627;SDS011;34424;52.234;6.500;2023-04-25T01:26:16;30.77;;;11.68;;
48627;SDS011;34424;52.234;6.500;2023-04-25T01:31:19;27.08;;;10.80;;
48627;SDS011;34424;52.234;6.500;2023-04-25T01:36:23;26.27;;;11.13;;
48627;SDS011;34424;52.234;6.500;2023-04-25T01:41:26;22.05;;;9.85;;
48627;SDS011;34424;52.234;6.500;2023-04-25T01:46:29;25.40;;;10.48;;
48627;SDS011;34424;52.234;6.500;2023-04-25T01:51:34;27.67;;;10.63;;
48627;SDS011;34424;52.234;6.500;2023-04-25T01:56:37;24.38;;;10.60;;
48627;SDS011;34424;52.234;6.500;2023-04-25T02:01:40;23.25;;;9.52;;
48627;SDS011;34424;52.234;6.500;2023-04-25T02:06:44;25.87;;;9.10;;
48627;SDS011;34424;52.234;6.500;2023-04-25T02:11:47;27.88;;;9.55;;
48627;SDS011;34424;52.234;6.500;2023-04-25T02:16:49;21.67;;;9.17;;
48627;SDS011;34424;52.234;6.500;2023-04-25T02:21:54;23.55;;;9.02;;
48627;SDS011;34424;52.234;6.500;2023-04-25T02:26:58;23.73;;;8.77;;
48627;SDS011;34424;52.234;6.500;2023-04-25T02:32:00;24.17;;;9.47;;
48627;SDS011;34424;52.234;6.500;2023-04-25T02:37:05;25.27;;;9.23;;
48627;SDS011;34424;52.234;6.500;2023-04-25T02:42:07;23.10;;;8.73;;
48627;SDS011;34424;52.234;6.500;2023-04-25T02:47:10;30.92;;;8.57;;
48627;SDS011;34424;52.234;6.500;2023-04-25T02:52:14;21.25;;;8.48;;
48627;SDS011;34424;52.234;6.500;2023-04-25T02:57:16;22.20;;;8.48;;
48627;SDS011;34424;52.234;6.500;2023-04-25T03:02:19;14.93;;;7.32;;
48627;SDS011;34424;52.234;6.500;2023-04-25T03:07:25;15.60;;;7.70;;
48627;SDS011;34424;52.234;6.500;2023-04-25T03:12:28;24.90;;;9.50;;
48627;SDS011;34424;52.234;6.500;2023-04-25T03:17:30;21.80;;;8.97;;
48627;SDS011;34424;52.234;6.500;2023-04-25T03:22:35;19.17;;;8.17;;
48627;SDS011;34424;52.234;6.500;2023-04-25T03:27:38;17.65;;;8.13;;
48627;SDS011;34424;52.234;6.500;2023-04-25T03:32:41;23.10;;;9.45;;
48627;SDS011;34424;52.234;6.500;2023-04-25T03:37:45;16.77;;;8.30;;
48627;SDS011;34424;52.234;6.500;2023-04-25T03:42:47;19.00;;;8.55;;
48627;SDS011;34424;52.234;6.500;2023-04-25T03:47:50;21.65;;;8.90;;
48627;SDS011;34424;52.234;6.500;2023-04-25T03:52:54;17.08;;;7.68;;
48627;SDS011;34424;52.234;6.500;2023-04-25T03:57:57;21.02;;;8.40;;
48627;SDS011;34424;52.234;6.500;2023-04-25T04:03:00;21.13;;;8.80;;
48627;SDS011;34424;52.234;6.500;2023-04-25T04:08:04;21.00;;;8.97;;
48627;SDS011;34424;52.234;6.500;2023-04-25T04:13:07;17.80;;;7.90;;
48627;SDS011;34424;52.234;6.500;2023-04-25T04:18:09;15.85;;;8.52;;
48627;SDS011;34424;52.234;6.500;2023-04-25T04:23:13;15.23;;;8.30;;
48627;SDS011;34424;52.234;6.500;2023-04-25T04:28:16;18.88;;;8.57;;
48627;SDS011;34424;52.234;6.500;2023-04-25T04:33:18;17.47;;;8.47;;
48627;SDS011;34424;52.234;6.500;2023-04-25T04:38:23;23.87;;;7.80;;
48627;SDS011;34424;52.234;6.500;2023-04-25T04:43:26;17.42;;;8.40;;
48627;SDS011;34424;52.234;6.500;2023-04-25T04:48:30;21.92;;;8.52;;
48627;SDS011;34424;52.234;6.500;2023-04-25T04:53:36;23.75;;;10.30;;
48627;SDS011;34424;52.234;6.500;2023-04-25T04:58:39;18.23;;;9.50;;
48627;SDS011;34424;52.234;6.500;2023-04-25T05:03:41;16.23;;;9.10;;
48627;SDS011;34424;52.234;6.500;2023-04-25T05:08:46;19.47;;;10.07;;
48627;SDS011;34424;52.234;6.500;2023-04-25T05:13:49;20.27;;;9.82;;
48627;SDS011;34424;52.234;6.500;2023-04-25T05:18:53;21.70;;;9.07;;
48627;SDS011;34424;52.234;6.500;2023-04-25T05:23:57;21.87;;;8.50;;
48627;SDS011;34424;52.234;6.500;2023-04-25T05:29:00;17.63;;;7.75;;
48627;SDS011;34424;52.234;6.500;2023-04-25T05:34:03;24.67;;;7.80;;
48627;SDS011;34424;52.234;6.500;2023-04-25T05:39:07;19.20;;;7.60;;
48627;SDS011;34424;52.234;6.500;2023-04-25T05:44:10;15.00;;;7.85;;
48627;SDS011;34424;52.234;6.500;2023-04-25T05:49:12;14.93;;;7.10;;
48627;SDS011;34424;52.234;6.500;2023-04-25T05:54:19;17.27;;;7.13;;
48627;SDS011;34424;52.234;6.500;2023-04-25T05:59:21;16.95;;;6.75;;
48627;SDS011;34424;52.234;6.500;2023-04-25T06:04:24;17.25;;;6.80;;
48627;SDS011;34424;52.234;6.500;2023-04-25T06:09:29;13.52;;;6.47;;
48627;SDS011;34424;52.234;6.500;2023-04-25T06:14:31;12.05;;;5.97;;
48627;SDS011;34424;52.234;6.500;2023-04-25T06:19:34;12.77;;;6.33;;
48627;SDS011;34424;52.234;6.500;2023-04-25T06:29:41;10.38;;;5.88;;
48627;SDS011;34424;52.234;6.500;2023-04-25T06:34:44;14.80;;;5.97;;
48627;SDS011;34424;52.234;6.500;2023-04-25T06:39:48;9.73;;;5.25;;
48627;SDS011;34424;52.234;6.500;2023-04-25T06:44:50;13.10;;;5.22;;
48627;SDS011;34424;52.234;6.500;2023-04-25T06:49:53;17.53;;;4.23;;
48627;SDS011;34424;52.234;6.500;2023-04-25T06:54:57;6.70;;;3.27;;
48627;SDS011;34424;52.234;6.500;2023-04-25T07:00:00;7.55;;;2.75;;
48627;SDS011;34424;52.234;6.500;2023-04-25T07:05:06;4.68;;;2.60;;
48627;SDS011;34424;52.234;6.500;2023-04-25T07:15:13;10.32;;;2.20;;
48627;SDS011;34424;52.234;6.500;2023-04-25T07:20:16;7.82;;;2.33;;
48627;SDS011;34424;52.234;6.500;2023-04-25T07:25:20;9.15;;;3.03;;
48627;SDS011;34424;52.234;6.500;2023-04-25T07:30:22;9.73;;;2.67;;
48627;SDS011;34424;52.234;6.500;2023-04-25T07:35:25;4.85;;;2.10;;
48627;SDS011;34424;52.234;6.500;2023-04-25T07:40:29;7.80;;;2.00;;
48627;SDS011;34424;52.234;6.500;2023-04-25T07:45:32;9.48;;;2.60;;
48627;SDS011;34424;52.234;6.500;2023-04-25T07:50:35;3.97;;;1.90;;
48627;SDS011;34424;52.234;6.500;2023-04-25T07:55:39;8.80;;;2.70;;
48627;SDS011;34424;52.234;6.500;2023-04-25T08:00:41;5.93;;;2.28;;
48627;SDS011;34424;52.234;6.500;2023-04-25T08:05:44;8.53;;;2.13;;
48627;SDS011;34424;52.234;6.500;2023-04-25T08:10:49;5.63;;;1.85;;
48627;SDS011;34424;52.234;6.500;2023-04-25T08:15:52;6.55;;;2.53;;
48627;SDS011;34424;52.234;6.500;2023-04-25T08:20:54;12.23;;;2.63;;
48627;SDS011;34424;52.234;6.500;2023-04-25T08:25:58;11.60;;;2.07;;
48627;SDS011;34424;52.234;6.500;2023-04-25T08:31:01;7.07;;;2.30;;
48627;SDS011;34424;52.234;6.500;2023-04-25T08:36:04;5.03;;;1.40;;
48627;SDS011;34424;52.234;6.500;2023-04-25T08:41:08;7.93;;;1.58;;
48627;SDS011;34424;52.234;6.500;2023-04-25T08:46:14;3.15;;;1.52;;
48627;SDS011;34424;52.234;6.500;2023-04-25T08:51:21;6.55;;;1.75;;
48627;SDS011;34424;52.234;6.500;2023-04-25T08:56:27;6.90;;;2.40;;
48627;SDS011;34424;52.234;6.500;2023-04-25T09:01:31;3.92;;;1.35;;
48627;SDS011;34424;52.234;6.500;2023-04-25T09:06:34;3.38;;;1.50;;
48627;SDS011;34424;52.234;6.500;2023-04-25T09:11:38;5.82;;;1.30;;
48627;SDS011;34424;52.234;6.500;2023-04-25T09:22:09;3.42;;;1.20;;
48627;SDS011;34424;52.234;6.500;2023-04-25T09:27:17;3.22;;;1.13;;
48627;SDS011;34424;52.234;6.500;2023-04-25T09:32:22;4.70;;;1.60;;
48627;SDS011;34424;52.234;6.500;2023-04-25T09:37:26;3.17;;;1.40;;
48627;SDS011;34424;52.234;6.500;2023-04-25T09:42:32;5.18;;;1.40;;
48627;SDS011;34424;52.234;6.500;2023-04-25T09:47:37;6.00;;;1.60;;
48627;SDS011;34424;52.234;6.500;2023-04-25T09:52:40;5.70;;;1.60;;
48627;SDS011;34424;52.234;6.500;2023-04-25T09:57:44;8.68;;;2.00;;
48627;SDS011;34424;52.234;6.500;2023-04-25T10:02:52;2.88;;;1.40;;
48627;SDS011;34424;52.234;6.500;2023-04-25T10:07:56;5.38;;;1.35;;
48627;SDS011;34424;52.234;6.500;2023-04-25T10:18:04;3.70;;;1.30;;
48627;SDS011;34424;52.234;6.500;2023-04-25T10:23:13;3.25;;;1.65;;
48627;SDS011;34424;52.234;6.500;2023-04-25T10:28:19;4.07;;;1.90;;
48627;SDS011;34424;52.234;6.500;2023-04-25T10:33:29;7.70;;;2.10;;
48627;SDS011;34424;52.234;6.500;2023-04-25T10:38:34;2.90;;;1.23;;
48627;SDS011;34424;52.234;6.500;2023-04-25T10:43:39;4.40;;;1.30;;
48627;SDS011;34424;52.234;6.500;2023-04-25T10:48:44;3.90;;;1.33;;
48627;SDS011;34424;52.234;6.500;2023-04-25T10:53:59;4.78;;;1.40;;
48627;SDS011;34424;52.234;6.500;2023-04-25T10:59:05;5.88;;;1.50;;
48627;SDS011;34424;52.234;6.500;2023-04-25T11:04:19;2.95;;;1.17;;
48627;SDS011;34424;52.234;6.500;2023-04-25T11:09:24;5.35;;;2.53;;
48627;SDS011;34424;52.234;6.500;2023-04-25T11:14:28;2.90;;;2.08;;
48627;SDS011;34424;52.234;6.500;2023-04-25T11:19:31;3.75;;;1.55;;
48627;SDS011;34424;52.234;6.500;2023-04-25T11:24:34;2.83;;;1.27;;
48627;SDS011;34424;52.234;6.500;2023-04-25T11:29:39;5.32;;;1.30;;
48627;SDS011;34424;52.234;6.500;2023-04-25T11:34:43;4.88;;;1.45;;
48627;SDS011;34424;52.234;6.500;2023-04-25T11:39:47;5.18;;;1.30;;
48627;SDS011;34424;52.234;6.500;2023-04-25T11:44:51;2.10;;;0.98;;
48627;SDS011;34424;52.234;6.500;2023-04-25T11:49:57;3.88;;;1.20;;
48627;SDS011;34424;52.234;6.500;2023-04-25T11:55:00;3.42;;;1.13;;
48627;SDS011;34424;52.234;6.500;2023-04-25T12:00:08;2.38;;;0.95;;
48627;SDS011;34424;52.234;6.500;2023-04-25T12:05:18;2.55;;;1.20;;
48627;SDS011;34424;52.234;6.500;2023-04-25T12:10:33;4.05;;;1.63;;
48627;SDS011;34424;52.234;6.500;2023-04-25T12:15:41;4.15;;;1.65;;
48627;SDS011;34424;52.234;6.500;2023-04-25T12:20:43;5.03;;;1.60;;
48627;SDS011;34424;52.234;6.500;2023-04-25T12:25:46;4.45;;;2.15;;
48627;SDS011;34424;52.234;6.500;2023-04-25T12:30:57;5.90;;;1.55;;
48627;SDS011;34424;52.234;6.500;2023-04-25T12:36:02;3.15;;;1.45;;
48627;SDS011;34424;52.234;6.500;2023-04-25T12:41:10;6.90;;;1.90;;
48627;SDS011;34424;52.234;6.500;2023-04-25T12:46:13;6.63;;;2.50;;
48627;SDS011;34424;52.234;6.500;2023-04-25T12:51:16;4.40;;;1.23;;
48627;SDS011;34424;52.234;6.500;2023-04-25T12:56:19;4.70;;;1.77;;
48627;SDS011;34424;52.234;6.500;2023-04-25T13:01:26;3.88;;;2.13;;
48627;SDS011;34424;52.234;6.500;2023-04-25T13:06:29;2.97;;;0.90;;
48627;SDS011;34424;52.234;6.500;2023-04-25T13:11:32;3.42;;;1.10;;
48627;SDS011;34424;52.234;6.500;2023-04-25T13:16:36;2.95;;;1.10;;
48627;SDS011;34424;52.234;6.500;2023-04-25T13:21:40;3.28;;;1.40;;
48627;SDS011;34424;52.234;6.500;2023-04-25T13:26:43;4.47;;;1.10;;
48627;SDS011;34424;52.234;6.500;2023-04-25T13:31:47;2.80;;;0.85;;
48627;SDS011;34424;52.234;6.500;2023-04-25T13:36:49;2.42;;;1.15;;
48627;SDS011;34424;52.234;6.500;2023-04-25T13:41:52;3.20;;;1.20;;
48627;SDS011;34424;52.234;6.500;2023-04-25T13:46:56;5.17;;;1.33;;
48627;SDS011;34424;52.234;6.500;2023-04-25T13:52:00;3.05;;;1.17;;
48627;SDS011;34424;52.234;6.500;2023-04-25T13:57:02;1.58;;;1.05;;
48627;SDS011;34424;52.234;6.500;2023-04-25T14:02:07;2.10;;;0.70;;
48627;SDS011;34424;52.234;6.500;2023-04-25T14:07:10;1.83;;;0.90;;
48627;SDS011;34424;52.234;6.500;2023-04-25T14:12:13;3.25;;;1.25;;
48627;SDS011;34424;52.234;6.500;2023-04-25T14:17:17;2.75;;;0.80;;
48627;SDS011;34424;52.234;6.500;2023-04-25T14:22:20;2.20;;;0.80;;
48627;SDS011;34424;52.234;6.500;2023-04-25T14:27:22;4.10;;;1.23;;
48627;SDS011;34424;52.234;6.500;2023-04-25T14:32:29;2.92;;;1.20;;
48627;SDS011;34424;52.234;6.500;2023-04-25T14:37:33;3.17;;;1.05;;
48627;SDS011;34424;52.234;6.500;2023-04-25T14:42:36;1.88;;;1.10;;
48627;SDS011;34424;52.234;6.500;2023-04-25T14:47:40;3.40;;;1.38;;
48627;SDS011;34424;52.234;6.500;2023-04-25T14:52:43;3.70;;;1.20;;
48627;SDS011;34424;52.234;6.500;2023-04-25T14:57:47;2.83;;;1.20;;
48627;SDS011;34424;52.234;6.500;2023-04-25T15:02:51;3.23;;;1.50;;
48627;SDS011;34424;52.234;6.500;2023-04-25T15:07:54;5.00;;;2.05;;
48627;SDS011;34424;52.234;6.500;2023-04-25T15:12:56;6.10;;;1.85;;
48627;SDS011;34424;52.234;6.500;2023-04-25T15:18:00;5.20;;;2.80;;
48627;SDS011;34424;52.234;6.500;2023-04-25T15:23:03;4.43;;;1.80;;
48627;SDS011;34424;52.234;6.500;2023-04-25T15:33:11;2.85;;;1.08;;
48627;SDS011;34424;52.234;6.500;2023-04-25T15:38:14;4.40;;;1.75;;
48627;SDS011;34424;52.234;6.500;2023-04-25T15:43:17;5.88;;;2.97;;
48627;SDS011;34424;52.234;6.500;2023-04-25T15:48:21;5.23;;;1.50;;
48627;SDS011;34424;52.234;6.500;2023-04-25T15:53:23;2.60;;;1.50;;
48627;SDS011;34424;52.234;6.500;2023-04-25T15:58:26;4.70;;;1.60;;
48627;SDS011;34424;52.234;6.500;2023-04-25T16:03:30;2.97;;;1.87;;
48627;SDS011;34424;52.234;6.500;2023-04-25T16:08:36;3.50;;;1.95;;
48627;SDS011;34424;52.234;6.500;2023-04-25T16:13:39;4.38;;;1.88;;
48627;SDS011;34424;52.234;6.500;2023-04-25T16:18:43;6.35;;;1.60;;
48627;SDS011;34424;52.234;6.500;2023-04-25T16:23:46;7.97;;;2.00;;
48627;SDS011;34424;52.234;6.500;2023-04-25T16:28:48;6.72;;;1.70;;
48627;SDS011;34424;52.234;6.500;2023-04-25T16:33:52;5.10;;;1.70;;
48627;SDS011;34424;52.234;6.500;2023-04-25T16:38:55;6.50;;;2.03;;
48627;SDS011;34424;52.234;6.500;2023-04-25T16:43:57;6.43;;;1.90;;
48627;SDS011;34424;52.234;6.500;2023-04-25T16:49:01;4.47;;;1.57;;
48627;SDS011;34424;52.234;6.500;2023-04-25T16:54:04;3.72;;;1.80;;
48627;SDS011;34424;52.234;6.500;2023-04-25T16:59:07;6.80;;;1.60;;
48627;SDS011;34424;52.234;6.500;2023-04-25T17:04:11;5.03;;;1.93;;
48627;SDS011;34424;52.234;6.500;2023-04-25T17:09:13;6.70;;;2.13;;
48627;SDS011;34424;52.234;6.500;2023-04-25T17:14:16;7.40;;;2.70;;
48627;SDS011;34424;52.234;6.500;2023-04-25T17:19:20;7.40;;;1.83;;
48627;SDS011;34424;52.234;6.500;2023-04-25T17:24:23;4.95;;;1.85;;
48627;SDS011;34424;52.234;6.500;2023-04-25T17:29:25;2.83;;;1.70;;
48627;SDS011;34424;52.234;6.500;2023-04-25T17:34:29;3.07;;;1.70;;
48627;SDS011;34424;52.234;6.500;2023-04-25T17:39:32;2.80;;;1.70;;
48627;SDS011;34424;52.234;6.500;2023-04-25T17:44:34;2.30;;;1.77;;
48627;SDS011;34424;52.234;6.500;2023-04-25T17:49:38;3.30;;;1.80;;
48627;SDS011;34424;52.234;6.500;2023-04-25T17:54:41;6.10;;;2.38;;
48627;SDS011;34424;52.234;6.500;2023-04-25T17:59:44;5.00;;;2.20;;
48627;SDS011;34424;52.234;6.500;2023-04-25T18:04:48;6.40;;;2.80;;
48627;SDS011;34424;52.234;6.500;2023-04-25T18:09:50;4.10;;;2.70;;
48627;SDS011;34424;52.234;6.500;2023-04-25T18:14:53;10.07;;;2.37;;
48627;SDS011;34424;52.234;6.500;2023-04-25T18:19:57;7.50;;;3.40;;
48627;SDS011;34424;52.234;6.500;2023-04-25T18:25:02;5.25;;;3.10;;
48627;SDS011;34424;52.234;6.500;2023-04-25T18:30:06;5.07;;;2.75;;
48627;SDS011;34424;52.234;6.500;2023-04-25T18:35:12;7.13;;;2.75;;
48627;SDS011;34424;52.234;6.500;2023-04-25T18:40:14;5.75;;;3.05;;
48627;SDS011;34424;52.234;6.500;2023-04-25T18:45:17;8.77;;;3.10;;
48627;SDS011;34424;52.234;6.500;2023-04-25T18:50:21;5.00;;;3.50;;
48627;SDS011;34424;52.234;6.500;2023-04-25T18:55:26;7.13;;;2.95;;
48627;SDS011;34424;52.234;6.500;2023-04-25T19:00:30;7.47;;;3.75;;
48627;SDS011;34424;52.234;6.500;2023-04-25T19:05:34;6.33;;;3.87;;
48627;SDS011;34424;52.234;6.500;2023-04-25T19:10:36;4.20;;;3.33;;
48627;SDS011;34424;52.234;6.500;2023-04-25T19:15:40;4.60;;;3.50;;
48627;SDS011;34424;52.234;6.500;2023-04-25T19:25:46;4.00;;;3.42;;
48627;SDS011;34424;52.234;6.500;2023-04-25T19:30:49;5.38;;;3.28;;
48627;SDS011;34424;52.234;6.500;2023-04-25T19:35:53;10.10;;;3.53;;
48627;SDS011;34424;52.234;6.500;2023-04-25T19:40:56;9.95;;;4.38;;
48627;SDS011;34424;52.234;6.500;2023-04-25T19:45:59;9.73;;;5.43;;
48627;SDS011;34424;52.234;6.500;2023-04-25T19:51:03;9.48;;;6.78;;
48627;SDS011;34424;52.234;6.500;2023-04-25T19:56:06;13.02;;;6.05;;
48627;SDS011;34424;52.234;6.500;2023-04-25T20:01:09;7.63;;;4.55;;
48627;SDS011;34424;52.234;6.500;2023-04-25T20:06:13;8.03;;;4.37;;
48627;SDS011;34424;52.234;6.500;2023-04-25T20:11:16;7.00;;;4.50;;
48627;SDS011;34424;52.234;6.500;2023-04-25T20:16:19;14.60;;;5.70;;
48627;SDS011;34424;52.234;6.500;2023-04-25T20:21:23;8.15;;;4.18;;
48627;SDS011;34424;52.234;6.500;2023-04-25T20:26:27;10.43;;;4.50;;
48627;SDS011;34424;52.234;6.500;2023-04-25T20:31:33;7.05;;;6.18;;
48627;SDS011;34424;52.234;6.500;2023-04-25T20:36:38;10.07;;;4.40;;
48627;SDS011;34424;52.234;6.500;2023-04-25T20:41:41;6.55;;;4.00;;
48627;SDS011;34424;52.234;6.500;2023-04-25T20:46:44;10.07;;;5.43;;
48627;SDS011;34424;52.234;6.500;2023-04-25T20:51:49;8.45;;;5.55;;
48627;SDS011;34424;52.234;6.500;2023-04-25T20:56:52;10.98;;;5.75;;
48627;SDS011;34424;52.234;6.500;2023-04-25T21:01:57;10.00;;;5.45;;
48627;SDS011;34424;52.234;6.500;2023-04-25T21:07:01;7.53;;;4.00;;
48627;SDS011;34424;52.234;6.500;2023-04-25T21:12:03;9.60;;;4.18;;
48627;SDS011;34424;52.234;6.500;2023-04-25T21:17:07;8.65;;;4.05;;
48627;SDS011;34424;52.234;6.500;2023-04-25T21:22:11;8.07;;;4.73;;
48627;SDS011;34424;52.234;6.500;2023-04-25T21:27:13;7.97;;;4.75;;
48627;SDS011;34424;52.234;6.500;2023-04-25T21:32:19;7.90;;;4.40;;
48627;SDS011;34424;52.234;6.500;2023-04-25T21:37:23;6.22;;;4.40;;
48627;SDS011;34424;52.234;6.500;2023-04-25T21:42:26;8.48;;;4.82;;
48627;SDS011;34424;52.234;6.500;2023-04-25T21:47:28;8.83;;;4.27;;
48627;SDS011;34424;52.234;6.500;2023-04-25T21:52:33;7.25;;;4.40;;
48627;SDS011;34424;52.234;6.500;2023-04-25T21:57:37;11.75;;;5.07;;
48627;SDS011;34424;52.234;6.500;2023-04-25T22:02:39;7.22;;;4.63;;
48627;SDS011;34424;52.234;6.500;2023-04-25T22:07:43;8.70;;;4.73;;
48627;SDS011;34424;52.234;6.500;2023-04-25T22:12:46;10.00;;;5.07;;
48627;SDS011;34424;52.234;6.500;2023-04-25T22:17:51;7.05;;;5.20;;
48627;SDS011;34424;52.234;6.500;2023-04-25T22:22:57;9.07;;;4.80;;
48627;SDS011;34424;52.234;6.500;2023-04-25T22:27:59;12.95;;;5.82;;
48627;SDS011;34424;52.234;6.500;2023-04-25T22:33:02;7.50;;;4.43;;
48627;SDS011;34424;52.234;6.500;2023-04-25T22:38:06;10.77;;;5.63;;
48627;SDS011;34424;52.234;6.500;2023-04-25T22:43:08;8.27;;;4.85;;
48627;SDS011;34424;52.234;6.500;2023-04-25T22:48:13;8.75;;;4.97;;
48627;SDS011;34424;52.234;6.500;2023-04-25T22:58:19;7.18;;;4.43;;
48627;SDS011;34424;52.234;6.500;2023-04-25T23:03:22;5.82;;;4.20;;
48627;SDS011;34424;52.234;6.500;2023-04-25T23:08:26;8.30;;;4.63;;
48627;SDS011;34424;52.234;6.500;2023-04-25T23:13:29;8.25;;;4.65;;
48627;SDS011;34424;52.234;6.500;2023-04-25T23:18:34;8.80;;;4.95;;
48627;SDS011;34424;52.234;6.500;2023-04-25T23:23:38;8.88;;;4.43;;
48627;SDS011;34424;52.234;6.500;2023-04-25T23:28:41;5.93;;;4.00;;
48627;SDS011;34424;52.234;6.500;2023-04-25T23:33:45;7.95;;;4.60;;
48627;SDS011;34424;52.234;6.500;2023-04-25T23:38:49;8.95;;;4.65;;
48627;SDS011;34424;52.234;6.500;2023-04-25T23:43:53;9.95;;;5.25;;
48627;SDS011;34424;52.234;6.500;2023-04-25T23:54:00;9.88;;;5.45;;
48627;SDS011;34424;52.234;6.500;2023-04-25T23:59:05;10.90;;;5.53;;
